Startpagina
METAR-TAF:

METAR-TAF

Vliegvelden :

Liberia, Costa Rica

breedte: 10-37N, lengte: 085-26W, hoogte: 80 m

Actueel weer

Dit bericht is 1 uur en het 1 minuten geleden gemaakt, om 06:00 UTC
Wind 3 kt uit het zuiden
Temperatuur 24°C
Vochtigheid 100%
Druk 1013 hPa
Zicht: 2000 m
Weinig wolken op 200 ft
Verspreide wolken op 2000 ft
mistbanken

METAR: MRLB 150600Z 17003KT 6000 2000SW BCFG FEW002 SCT020 24/24 A2991 NOSIG

Tijdstip: 01:01 (07:01 UTC)

Verwachting

Dit bericht is 2 uur en het 1 minuten geleden gemaakt, om 05:00 UTC
Verwachting geldig van 15 om 06 UTC tot 16 om 06 UTC
Wind 6 kt uit het oostzuidoosten
Zicht 10 km of meer
Weinig wolken op 4000 ft
Tijdelijke
van 15 om 08 UTC tot 15 om 14 UTC
Wind 2 kt uit variabele richting
mistbanken
Tijdelijke
van 15 om 17 UTC tot 15 om 23 UTC
Wind 6 kt uit het westen

TAF: MRLB 150500Z 1506/1606 12006KT 9999 FEW040 TX33/1520Z TN23/1512Z TEMPO 1508/1514 VRB02KT BCFG TEMPO 1517/1523 28006KT

Waarnemingen en weersverwachtingen van meer dan 4000 vliegvelden (METAR en TAF).

De beschikbare stations zijn de gele en rode punten op de kaart.

Ga met uw muis naar het station om de naam te zien.

Klik dan om waarnemingen en weersverwachtingen te zien.

kaart wijzigen: klik op de groene knoppen met een zwart kruis om in te zoomen, op de groene knop met een streepje om uit te zoomen of op de groene pijlen voor aangrenzende kaarten.


METAR-TAF: